sensor_id;sensor_type;location;lat;lon;timestamp;P1;durP1;ratioP1;P2;durP2;ratioP2
67798;SDS011;54596;43.216;27.904;2023-05-10T00:00:46;13.32;;;5.45;;
67798;SDS011;54596;43.216;27.904;2023-05-10T00:03:12;10.85;;;5.32;;
67798;SDS011;54596;43.216;27.904;2023-05-10T00:05:37;13.52;;;5.53;;
67798;SDS011;54596;43.216;27.904;2023-05-10T00:08:03;13.98;;;7.38;;
67798;SDS011;54596;43.216;27.904;2023-05-10T00:10:28;12.23;;;7.90;;
67798;SDS011;54596;43.216;27.904;2023-05-10T00:12:54;15.38;;;8.07;;
67798;SDS011;54596;43.216;27.904;2023-05-10T00:15:19;15.40;;;8.63;;
67798;SDS011;54596;43.216;27.904;2023-05-10T00:17:45;15.20;;;9.15;;
67798;SDS011;54596;43.216;27.904;2023-05-10T00:20:10;16.10;;;9.25;;
67798;SDS011;54596;43.216;27.904;2023-05-10T00:22:36;14.02;;;10.13;;
67798;SDS011;54596;43.216;27.904;2023-05-10T00:25:02;15.38;;;9.60;;
67798;SDS011;54596;43.216;27.904;2023-05-10T00:27:27;16.02;;;10.18;;
67798;SDS011;54596;43.216;27.904;2023-05-10T00:29:53;16.15;;;9.80;;
67798;SDS011;54596;43.216;27.904;2023-05-10T00:32:18;16.00;;;10.00;;
67798;SDS011;54596;43.216;27.904;2023-05-10T00:34:44;14.20;;;8.73;;
67798;SDS011;54596;43.216;27.904;2023-05-10T00:37:09;16.02;;;10.05;;
67798;SDS011;54596;43.216;27.904;2023-05-10T00:39:35;19.52;;;11.85;;
67798;SDS011;54596;43.216;27.904;2023-05-10T00:42:00;18.13;;;10.82;;
67798;SDS011;54596;43.216;27.904;2023-05-10T00:44:26;15.80;;;10.50;;
67798;SDS011;54596;43.216;27.904;2023-05-10T00:46:51;18.30;;;9.40;;
67798;SDS011;54596;43.216;27.904;2023-05-10T00:49:17;13.90;;;8.52;;
67798;SDS011;54596;43.216;27.904;2023-05-10T00:51:43;16.95;;;9.05;;
67798;SDS011;54596;43.216;27.904;2023-05-10T00:54:11;14.13;;;8.20;;
67798;SDS011;54596;43.216;27.904;2023-05-10T00:56:38;15.07;;;8.63;;
67798;SDS011;54596;43.216;27.904;2023-05-10T00:59:05;15.18;;;7.20;;
67798;SDS011;54596;43.216;27.904;2023-05-10T01:01:31;16.88;;;7.50;;
67798;SDS011;54596;43.216;27.904;2023-05-10T01:03:56;11.35;;;6.80;;
67798;SDS011;54596;43.216;27.904;2023-05-10T01:06:23;14.40;;;6.60;;
67798;SDS011;54596;43.216;27.904;2023-05-10T01:08:48;16.25;;;7.18;;
67798;SDS011;54596;43.216;27.904;2023-05-10T01:11:14;15.68;;;9.18;;
67798;SDS011;54596;43.216;27.904;2023-05-10T01:13:41;14.00;;;8.00;;
67798;SDS011;54596;43.216;27.904;2023-05-10T01:16:08;13.77;;;7.20;;
67798;SDS011;54596;43.216;27.904;2023-05-10T01:18:35;15.35;;;8.57;;
67798;SDS011;54596;43.216;27.904;2023-05-10T01:21:27;11.68;;;7.40;;
67798;SDS011;54596;43.216;27.904;2023-05-10T01:33:06;18.00;;;11.00;;
67798;SDS011;54596;43.216;27.904;2023-05-10T01:35:47;21.00;;;14.23;;
67798;SDS011;54596;43.216;27.904;2023-05-10T01:38:42;21.65;;;15.10;;
67798;SDS011;54596;43.216;27.904;2023-05-10T01:41:19;22.08;;;15.93;;
67798;SDS011;54596;43.216;27.904;2023-05-10T01:47:04;16.73;;;10.10;;
67798;SDS011;54596;43.216;27.904;2023-05-10T01:49:36;17.95;;;9.25;;
67798;SDS011;54596;43.216;27.904;2023-05-10T01:52:16;18.38;;;9.25;;
67798;SDS011;54596;43.216;27.904;2023-05-10T01:54:55;16.00;;;9.15;;
67798;SDS011;54596;43.216;27.904;2023-05-10T01:57:33;17.02;;;10.02;;
67798;SDS011;54596;43.216;27.904;2023-05-10T02:00:03;15.55;;;9.98;;
67798;SDS011;54596;43.216;27.904;2023-05-10T02:02:33;18.38;;;10.23;;
67798;SDS011;54596;43.216;27.904;2023-05-10T02:05:02;19.42;;;11.50;;
67798;SDS011;54596;43.216;27.904;2023-05-10T02:07:30;17.05;;;9.88;;
67798;SDS011;54596;43.216;27.904;2023-05-10T02:09:58;17.60;;;10.43;;
67798;SDS011;54596;43.216;27.904;2023-05-10T02:12:24;16.85;;;10.38;;
67798;SDS011;54596;43.216;27.904;2023-05-10T02:14:52;17.42;;;9.63;;
67798;SDS011;54596;43.216;27.904;2023-05-10T02:17:18;15.85;;;9.95;;
67798;SDS011;54596;43.216;27.904;2023-05-10T02:19:45;16.05;;;9.57;;
67798;SDS011;54596;43.216;27.904;2023-05-10T02:22:12;15.68;;;10.10;;
67798;SDS011;54596;43.216;27.904;2023-05-10T02:24:40;15.52;;;9.88;;
67798;SDS011;54596;43.216;27.904;2023-05-10T02:27:06;16.05;;;10.40;;
67798;SDS011;54596;43.216;27.904;2023-05-10T02:29:33;15.70;;;9.93;;
67798;SDS011;54596;43.216;27.904;2023-05-10T02:32:00;13.63;;;9.50;;
67798;SDS011;54596;43.216;27.904;2023-05-10T02:34:27;17.70;;;10.05;;
67798;SDS011;54596;43.216;27.904;2023-05-10T02:36:53;16.40;;;10.05;;
67798;SDS011;54596;43.216;27.904;2023-05-10T02:39:20;16.92;;;10.18;;
67798;SDS011;54596;43.216;27.904;2023-05-10T02:41:46;16.50;;;10.82;;
67798;SDS011;54596;43.216;27.904;2023-05-10T02:44:19;14.93;;;10.82;;
67798;SDS011;54596;43.216;27.904;2023-05-10T02:46:47;14.57;;;10.50;;
67798;SDS011;54596;43.216;27.904;2023-05-10T02:49:13;13.98;;;10.07;;
67798;SDS011;54596;43.216;27.904;2023-05-10T02:51:40;17.08;;;10.02;;
67798;SDS011;54596;43.216;27.904;2023-05-10T02:54:18;17.65;;;10.82;;
67798;SDS011;54596;43.216;27.904;2023-05-10T02:56:53;19.15;;;10.73;;
67798;SDS011;54596;43.216;27.904;2023-05-10T02:59:25;18.30;;;10.70;;
67798;SDS011;54596;43.216;27.904;2023-05-10T03:01:51;18.45;;;10.90;;
67798;SDS011;54596;43.216;27.904;2023-05-10T03:04:17;19.15;;;12.38;;
67798;SDS011;54596;43.216;27.904;2023-05-10T03:06:43;17.85;;;10.68;;
67798;SDS011;54596;43.216;27.904;2023-05-10T03:09:09;28.80;;;12.15;;
67798;SDS011;54596;43.216;27.904;2023-05-10T03:14:21;18.85;;;10.45;;
67798;SDS011;54596;43.216;27.904;2023-05-10T03:17:06;18.92;;;10.32;;
67798;SDS011;54596;43.216;27.904;2023-05-10T03:19:57;18.20;;;10.55;;
67798;SDS011;54596;43.216;27.904;2023-05-10T03:22:32;28.13;;;12.10;;
67798;SDS011;54596;43.216;27.904;2023-05-10T03:25:04;19.50;;;9.93;;
67798;SDS011;54596;43.216;27.904;2023-05-10T03:27:31;18.30;;;10.30;;
67798;SDS011;54596;43.216;27.904;2023-05-10T03:29:57;16.20;;;10.20;;
67798;SDS011;54596;43.216;27.904;2023-05-10T03:32:23;16.02;;;9.95;;
67798;SDS011;54596;43.216;27.904;2023-05-10T03:34:48;16.88;;;10.40;;
67798;SDS011;54596;43.216;27.904;2023-05-10T03:37:17;15.48;;;9.45;;
67798;SDS011;54596;43.216;27.904;2023-05-10T03:39:42;15.52;;;9.40;;
67798;SDS011;54596;43.216;27.904;2023-05-10T03:42:08;17.58;;;9.95;;
67798;SDS011;54596;43.216;27.904;2023-05-10T03:44:36;16.13;;;9.45;;
67798;SDS011;54596;43.216;27.904;2023-05-10T03:47:03;16.77;;;9.30;;
67798;SDS011;54596;43.216;27.904;2023-05-10T03:49:28;17.00;;;9.70;;
67798;SDS011;54596;43.216;27.904;2023-05-10T03:51:54;15.27;;;9.32;;
67798;SDS011;54596;43.216;27.904;2023-05-10T03:54:20;15.93;;;8.77;;
67798;SDS011;54596;43.216;27.904;2023-05-10T03:56:45;12.88;;;7.97;;
67798;SDS011;54596;43.216;27.904;2023-05-10T03:59:12;15.30;;;8.90;;
67798;SDS011;54596;43.216;27.904;2023-05-10T04:01:38;18.73;;;9.43;;
67798;SDS011;54596;43.216;27.904;2023-05-10T04:04:03;15.80;;;7.57;;
67798;SDS011;54596;43.216;27.904;2023-05-10T04:06:29;14.00;;;7.47;;
67798;SDS011;54596;43.216;27.904;2023-05-10T04:08:54;18.73;;;8.52;;
67798;SDS011;54596;43.216;27.904;2023-05-10T04:11:20;18.15;;;7.68;;
67798;SDS011;54596;43.216;27.904;2023-05-10T04:13:46;15.70;;;7.70;;
67798;SDS011;54596;43.216;27.904;2023-05-10T04:16:12;11.63;;;6.93;;
67798;SDS011;54596;43.216;27.904;2023-05-10T04:18:37;11.63;;;6.38;;
67798;SDS011;54596;43.216;27.904;2023-05-10T04:21:04;16.92;;;7.18;;
67798;SDS011;54596;43.216;27.904;2023-05-10T04:23:35;14.23;;;6.95;;
67798;SDS011;54596;43.216;27.904;2023-05-10T04:26:01;13.25;;;6.70;;
67798;SDS011;54596;43.216;27.904;2023-05-10T04:28:27;12.27;;;6.28;;
67798;SDS011;54596;43.216;27.904;2023-05-10T04:30:52;14.35;;;6.40;;
67798;SDS011;54596;43.216;27.904;2023-05-10T04:33:18;10.88;;;6.72;;
67798;SDS011;54596;43.216;27.904;2023-05-10T04:35:43;15.90;;;6.65;;
67798;SDS011;54596;43.216;27.904;2023-05-10T04:38:12;13.43;;;6.18;;
67798;SDS011;54596;43.216;27.904;2023-05-10T04:40:38;12.20;;;5.72;;
67798;SDS011;54596;43.216;27.904;2023-05-10T04:43:03;13.70;;;6.15;;
67798;SDS011;54596;43.216;27.904;2023-05-10T04:45:29;16.70;;;5.72;;
67798;SDS011;54596;43.216;27.904;2023-05-10T04:47:54;11.65;;;5.47;;
67798;SDS011;54596;43.216;27.904;2023-05-10T04:50:20;11.52;;;5.20;;
67798;SDS011;54596;43.216;27.904;2023-05-10T04:52:45;10.85;;;4.80;;
67798;SDS011;54596;43.216;27.904;2023-05-10T04:55:11;11.65;;;5.30;;
67798;SDS011;54596;43.216;27.904;2023-05-10T04:57:36;12.48;;;4.63;;
67798;SDS011;54596;43.216;27.904;2023-05-10T05:00:02;11.75;;;4.88;;
67798;SDS011;54596;43.216;27.904;2023-05-10T05:02:28;20.48;;;5.38;;
67798;SDS011;54596;43.216;27.904;2023-05-10T05:04:55;9.50;;;4.75;;
67798;SDS011;54596;43.216;27.904;2023-05-10T05:07:20;11.18;;;4.32;;
67798;SDS011;54596;43.216;27.904;2023-05-10T05:09:47;9.77;;;4.00;;
67798;SDS011;54596;43.216;27.904;2023-05-10T05:12:12;11.05;;;3.92;;
67798;SDS011;54596;43.216;27.904;2023-05-10T05:14:39;11.73;;;3.60;;
67798;SDS011;54596;43.216;27.904;2023-05-10T05:17:05;14.23;;;3.95;;
67798;SDS011;54596;43.216;27.904;2023-05-10T05:19:30;12.57;;;3.58;;
67798;SDS011;54596;43.216;27.904;2023-05-10T05:21:56;12.35;;;3.90;;
67798;SDS011;54596;43.216;27.904;2023-05-10T05:24:21;8.95;;;3.70;;
67798;SDS011;54596;43.216;27.904;2023-05-10T05:26:47;14.00;;;3.63;;
67798;SDS011;54596;43.216;27.904;2023-05-10T05:29:13;12.10;;;4.00;;
67798;SDS011;54596;43.216;27.904;2023-05-10T05:31:38;9.88;;;3.53;;
67798;SDS011;54596;43.216;27.904;2023-05-10T05:34:03;13.68;;;3.13;;
67798;SDS011;54596;43.216;27.904;2023-05-10T05:36:29;7.68;;;2.90;;
67798;SDS011;54596;43.216;27.904;2023-05-10T05:38:56;11.45;;;2.95;;
67798;SDS011;54596;43.216;27.904;2023-05-10T05:41:22;8.20;;;3.00;;
67798;SDS011;54596;43.216;27.904;2023-05-10T05:43:49;9.20;;;3.20;;
67798;SDS011;54596;43.216;27.904;2023-05-10T05:46:14;11.23;;;2.97;;
67798;SDS011;54596;43.216;27.904;2023-05-10T05:48:40;8.55;;;3.13;;
67798;SDS011;54596;43.216;27.904;2023-05-10T05:51:05;8.38;;;2.50;;
67798;SDS011;54596;43.216;27.904;2023-05-10T05:53:31;7.03;;;2.60;;
67798;SDS011;54596;43.216;27.904;2023-05-10T05:55:57;8.70;;;2.83;;
67798;SDS011;54596;43.216;27.904;2023-05-10T05:58:24;9.68;;;3.15;;
67798;SDS011;54596;43.216;27.904;2023-05-10T06:00:50;9.73;;;3.33;;
67798;SDS011;54596;43.216;27.904;2023-05-10T06:03:16;14.05;;;2.92;;
67798;SDS011;54596;43.216;27.904;2023-05-10T06:05:43;8.05;;;2.90;;
67798;SDS011;54596;43.216;27.904;2023-05-10T06:08:08;5.95;;;2.53;;
67798;SDS011;54596;43.216;27.904;2023-05-10T06:10:34;6.97;;;2.90;;
67798;SDS011;54596;43.216;27.904;2023-05-10T06:13:00;7.28;;;2.80;;
67798;SDS011;54596;43.216;27.904;2023-05-10T06:15:26;9.50;;;2.90;;
67798;SDS011;54596;43.216;27.904;2023-05-10T06:17:52;13.57;;;3.60;;
67798;SDS011;54596;43.216;27.904;2023-05-10T06:20:17;8.65;;;2.97;;
67798;SDS011;54596;43.216;27.904;2023-05-10T06:22:43;10.48;;;2.95;;
67798;SDS011;54596;43.216;27.904;2023-05-10T06:25:09;11.02;;;3.47;;
67798;SDS011;54596;43.216;27.904;2023-05-10T06:27:35;7.50;;;3.20;;
67798;SDS011;54596;43.216;27.904;2023-05-10T06:30:01;9.43;;;3.08;;
67798;SDS011;54596;43.216;27.904;2023-05-10T06:32:27;13.57;;;4.40;;
67798;SDS011;54596;43.216;27.904;2023-05-10T06:34:53;9.57;;;3.60;;
67798;SDS011;54596;43.216;27.904;2023-05-10T06:37:18;10.68;;;3.75;;
67798;SDS011;54596;43.216;27.904;2023-05-10T06:39:44;9.05;;;3.20;;
67798;SDS011;54596;43.216;27.904;2023-05-10T06:42:09;10.63;;;3.45;;
67798;SDS011;54596;43.216;27.904;2023-05-10T06:44:35;10.05;;;2.97;;
67798;SDS011;54596;43.216;27.904;2023-05-10T06:47:00;8.25;;;3.40;;
67798;SDS011;54596;43.216;27.904;2023-05-10T06:49:26;7.93;;;3.47;;
67798;SDS011;54596;43.216;27.904;2023-05-10T06:51:51;10.88;;;3.50;;
67798;SDS011;54596;43.216;27.904;2023-05-10T06:54:17;8.23;;;2.97;;
67798;SDS011;54596;43.216;27.904;2023-05-10T06:56:43;9.57;;;3.20;;
67798;SDS011;54596;43.216;27.904;2023-05-10T06:59:08;7.70;;;3.10;;
67798;SDS011;54596;43.216;27.904;2023-05-10T07:01:34;6.75;;;3.13;;
67798;SDS011;54596;43.216;27.904;2023-05-10T07:04:00;7.70;;;2.92;;
67798;SDS011;54596;43.216;27.904;2023-05-10T07:06:25;10.32;;;3.80;;
67798;SDS011;54596;43.216;27.904;2023-05-10T07:08:50;10.85;;;3.30;;
67798;SDS011;54596;43.216;27.904;2023-05-10T07:11:16;6.68;;;2.80;;
67798;SDS011;54596;43.216;27.904;2023-05-10T07:13:41;10.50;;;3.55;;
67798;SDS011;54596;43.216;27.904;2023-05-10T07:16:09;10.25;;;3.10;;
67798;SDS011;54596;43.216;27.904;2023-05-10T07:18:35;7.28;;;2.90;;
67798;SDS011;54596;43.216;27.904;2023-05-10T07:21:01;8.95;;;3.28;;
67798;SDS011;54596;43.216;27.904;2023-05-10T07:23:27;7.75;;;3.17;;
67798;SDS011;54596;43.216;27.904;2023-05-10T07:25:52;11.50;;;3.20;;
67798;SDS011;54596;43.216;27.904;2023-05-10T07:28:18;8.70;;;3.15;;
67798;SDS011;54596;43.216;27.904;2023-05-10T07:30:44;8.27;;;3.15;;
67798;SDS011;54596;43.216;27.904;2023-05-10T07:33:10;9.68;;;3.15;;
67798;SDS011;54596;43.216;27.904;2023-05-10T07:35:38;9.65;;;3.13;;
67798;SDS011;54596;43.216;27.904;2023-05-10T07:38:03;13.13;;;3.35;;
67798;SDS011;54596;43.216;27.904;2023-05-10T07:40:29;8.90;;;3.42;;
67798;SDS011;54596;43.216;27.904;2023-05-10T07:42:54;10.07;;;3.30;;
67798;SDS011;54596;43.216;27.904;2023-05-10T07:45:20;10.52;;;3.83;;
67798;SDS011;54596;43.216;27.904;2023-05-10T07:47:45;10.93;;;4.25;;
67798;SDS011;54596;43.216;27.904;2023-05-10T07:50:11;10.15;;;3.83;;
67798;SDS011;54596;43.216;27.904;2023-05-10T07:52:37;9.45;;;3.40;;
67798;SDS011;54596;43.216;27.904;2023-05-10T07:55:02;8.48;;;3.50;;
67798;SDS011;54596;43.216;27.904;2023-05-10T07:57:28;8.18;;;3.50;;
67798;SDS011;54596;43.216;27.904;2023-05-10T07:59:53;10.43;;;3.67;;
67798;SDS011;54596;43.216;27.904;2023-05-10T08:02:19;11.63;;;3.47;;
67798;SDS011;54596;43.216;27.904;2023-05-10T08:04:44;10.05;;;3.70;;
67798;SDS011;54596;43.216;27.904;2023-05-10T08:07:10;9.00;;;3.40;;
67798;SDS011;54596;43.216;27.904;2023-05-10T08:09:36;9.63;;;3.88;;
67798;SDS011;54596;43.216;27.904;2023-05-10T08:12:01;10.05;;;3.42;;
67798;SDS011;54596;43.216;27.904;2023-05-10T08:14:28;8.15;;;3.35;;
67798;SDS011;54596;43.216;27.904;2023-05-10T08:16:54;11.63;;;3.88;;
67798;SDS011;54596;43.216;27.904;2023-05-10T08:19:19;8.77;;;3.50;;
67798;SDS011;54596;43.216;27.904;2023-05-10T08:21:46;9.98;;;3.45;;
67798;SDS011;54596;43.216;27.904;2023-05-10T08:24:12;10.77;;;3.20;;
67798;SDS011;54596;43.216;27.904;2023-05-10T08:26:38;10.20;;;3.20;;
67798;SDS011;54596;43.216;27.904;2023-05-10T08:29:03;12.00;;;3.33;;
67798;SDS011;54596;43.216;27.904;2023-05-10T08:31:29;8.10;;;3.20;;
67798;SDS011;54596;43.216;27.904;2023-05-10T08:33:55;6.57;;;3.17;;
67798;SDS011;54596;43.216;27.904;2023-05-10T08:36:20;9.93;;;3.10;;
67798;SDS011;54596;43.216;27.904;2023-05-10T08:38:52;7.60;;;3.33;;
67798;SDS011;54596;43.216;27.904;2023-05-10T08:41:21;9.55;;;3.17;;
67798;SDS011;54596;43.216;27.904;2023-05-10T08:43:49;7.80;;;3.28;;
67798;SDS011;54596;43.216;27.904;2023-05-10T08:46:16;8.45;;;3.40;;
67798;SDS011;54596;43.216;27.904;2023-05-10T08:48:47;7.60;;;3.17;;
67798;SDS011;54596;43.216;27.904;2023-05-10T08:51:14;10.60;;;3.30;;
67798;SDS011;54596;43.216;27.904;2023-05-10T08:53:44;12.07;;;3.17;;
67798;SDS011;54596;43.216;27.904;2023-05-10T08:56:10;7.85;;;3.05;;
67798;SDS011;54596;43.216;27.904;2023-05-10T08:58:36;11.68;;;3.38;;
67798;SDS011;54596;43.216;27.904;2023-05-10T09:01:02;7.90;;;3.30;;
67798;SDS011;54596;43.216;27.904;2023-05-10T09:03:29;13.80;;;3.70;;
67798;SDS011;54596;43.216;27.904;2023-05-10T09:05:55;9.98;;;3.20;;
67798;SDS011;54596;43.216;27.904;2023-05-10T09:08:21;7.78;;;3.20;;
67798;SDS011;54596;43.216;27.904;2023-05-10T09:10:51;9.60;;;2.92;;
67798;SDS011;54596;43.216;27.904;2023-05-10T09:13:16;8.05;;;3.40;;
67798;SDS011;54596;43.216;27.904;2023-05-10T09:15:43;11.48;;;3.47;;
67798;SDS011;54596;43.216;27.904;2023-05-10T09:18:09;10.38;;;4.70;;
67798;SDS011;54596;43.216;27.904;2023-05-10T09:20:35;10.75;;;3.70;;
67798;SDS011;54596;43.216;27.904;2023-05-10T09:23:00;10.18;;;3.60;;
67798;SDS011;54596;43.216;27.904;2023-05-10T09:25:26;8.57;;;3.08;;
67798;SDS011;54596;43.216;27.904;2023-05-10T09:27:53;12.05;;;3.80;;
67798;SDS011;54596;43.216;27.904;2023-05-10T09:30:28;9.15;;;3.40;;
67798;SDS011;54596;43.216;27.904;2023-05-10T09:32:55;9.27;;;3.22;;
67798;SDS011;54596;43.216;27.904;2023-05-10T09:35:23;11.93;;;3.70;;
67798;SDS011;54596;43.216;27.904;2023-05-10T09:37:50;9.77;;;3.63;;
67798;SDS011;54596;43.216;27.904;2023-05-10T09:40:19;11.45;;;3.78;;
67798;SDS011;54596;43.216;27.904;2023-05-10T09:42:59;9.35;;;3.35;;
67798;SDS011;54596;43.216;27.904;2023-05-10T09:45:31;9.82;;;3.50;;
67798;SDS011;54596;43.216;27.904;2023-05-10T09:47:58;9.63;;;3.50;;
67798;SDS011;54596;43.216;27.904;2023-05-10T09:50:25;12.57;;;3.30;;
67798;SDS011;54596;43.216;27.904;2023-05-10T09:52:52;10.85;;;3.33;;
67798;SDS011;54596;43.216;27.904;2023-05-10T09:55:38;9.65;;;3.60;;
67798;SDS011;54596;43.216;27.904;2023-05-10T09:58:04;12.90;;;3.60;;
67798;SDS011;54596;43.216;27.904;2023-05-10T10:00:35;9.10;;;3.42;;
67798;SDS011;54596;43.216;27.904;2023-05-10T10:03:04;7.75;;;3.13;;
67798;SDS011;54596;43.216;27.904;2023-05-10T10:05:34;11.30;;;3.88;;
67798;SDS011;54596;43.216;27.904;2023-05-10T10:08:02;8.85;;;3.80;;
67798;SDS011;54596;43.216;27.904;2023-05-10T10:10:28;10.40;;;3.40;;
67798;SDS011;54596;43.216;27.904;2023-05-10T10:12:54;9.73;;;3.40;;
67798;SDS011;54596;43.216;27.904;2023-05-10T10:15:21;11.60;;;3.60;;
67798;SDS011;54596;43.216;27.904;2023-05-10T10:17:47;9.10;;;3.90;;
67798;SDS011;54596;43.216;27.904;2023-05-10T10:20:14;10.25;;;3.40;;
67798;SDS011;54596;43.216;27.904;2023-05-10T10:22:40;11.52;;;3.30;;
67798;SDS011;54596;43.216;27.904;2023-05-10T10:25:07;10.43;;;3.67;;
67798;SDS011;54596;43.216;27.904;2023-05-10T10:35:29;13.35;;;3.50;;
67798;SDS011;54596;43.216;27.904;2023-05-10T10:37:56;10.25;;;3.58;;
67798;SDS011;54596;43.216;27.904;2023-05-10T10:40:22;7.45;;;3.15;;
67798;SDS011;54596;43.216;27.904;2023-05-10T10:42:52;8.43;;;3.25;;
67798;SDS011;54596;43.216;27.904;2023-05-10T10:45:18;27.70;;;4.18;;
67798;SDS011;54596;43.216;27.904;2023-05-10T10:47:45;11.30;;;3.40;;
67798;SDS011;54596;43.216;27.904;2023-05-10T10:50:11;7.93;;;3.00;;
67798;SDS011;54596;43.216;27.904;2023-05-10T10:52:45;10.07;;;3.30;;
67798;SDS011;54596;43.216;27.904;2023-05-10T11:00:28;9.75;;;3.05;;
67798;SDS011;54596;43.216;27.904;2023-05-10T11:08:15;11.43;;;3.40;;
67798;SDS011;54596;43.216;27.904;2023-05-10T11:10:53;12.55;;;3.35;;
67798;SDS011;54596;43.216;27.904;2023-05-10T11:14:07;10.13;;;3.22;;
67798;SDS011;54596;43.216;27.904;2023-05-10T11:16:14;8.45;;;3.08;;
67798;SDS011;54596;43.216;27.904;2023-05-10T11:18:52;7.60;;;2.90;;
67798;SDS011;54596;43.216;27.904;2023-05-10T11:21:19;8.52;;;3.17;;
67798;SDS011;54596;43.216;27.904;2023-05-10T11:23:57;9.68;;;3.10;;
67798;SDS011;54596;43.216;27.904;2023-05-10T11:26:25;7.00;;;2.83;;
67798;SDS011;54596;43.216;27.904;2023-05-10T11:28:55;9.00;;;3.30;;
67798;SDS011;54596;43.216;27.904;2023-05-10T11:31:20;9.95;;;3.42;;
67798;SDS011;54596;43.216;27.904;2023-05-10T11:33:51;10.88;;;3.40;;
67798;SDS011;54596;43.216;27.904;2023-05-10T11:36:29;12.18;;;3.53;;
67798;SDS011;54596;43.216;27.904;2023-05-10T11:38:58;8.75;;;3.60;;
67798;SDS011;54596;43.216;27.904;2023-05-10T11:41:23;11.50;;;3.20;;
67798;SDS011;54596;43.216;27.904;2023-05-10T11:43:51;7.72;;;3.22;;
67798;SDS011;54596;43.216;27.904;2023-05-10T11:46:19;7.57;;;3.00;;
67798;SDS011;54596;43.216;27.904;2023-05-10T11:48:46;11.35;;;3.40;;
67798;SDS011;54596;43.216;27.904;2023-05-10T11:51:15;11.75;;;3.70;;
67798;SDS011;54596;43.216;27.904;2023-05-10T11:53:41;9.32;;;3.42;;
67798;SDS011;54596;43.216;27.904;2023-05-10T11:56:07;13.73;;;3.65;;
67798;SDS011;54596;43.216;27.904;2023-05-10T11:58:34;17.48;;;3.60;;
67798;SDS011;54596;43.216;27.904;2023-05-10T12:01:00;9.35;;;3.25;;
67798;SDS011;54596;43.216;27.904;2023-05-10T12:03:27;12.18;;;3.42;;
67798;SDS011;54596;43.216;27.904;2023-05-10T12:05:57;9.23;;;3.38;;
67798;SDS011;54596;43.216;27.904;2023-05-10T12:08:24;11.85;;;3.65;;
67798;SDS011;54596;43.216;27.904;2023-05-10T12:10:52;13.65;;;3.80;;
67798;SDS011;54596;43.216;27.904;2023-05-10T12:13:18;8.43;;;3.38;;
67798;SDS011;54596;43.216;27.904;2023-05-10T12:15:45;11.82;;;3.30;;
67798;SDS011;54596;43.216;27.904;2023-05-10T12:18:14;15.57;;;3.58;;
67798;SDS011;54596;43.216;27.904;2023-05-10T12:20:40;11.95;;;3.90;;
67798;SDS011;54596;43.216;27.904;2023-05-10T12:23:08;8.40;;;3.47;;
67798;SDS011;54596;43.216;27.904;2023-05-10T12:25:35;9.18;;;3.30;;
67798;SDS011;54596;43.216;27.904;2023-05-10T12:28:03;10.20;;;3.90;;
67798;SDS011;54596;43.216;27.904;2023-05-10T12:30:33;10.77;;;3.40;;
67798;SDS011;54596;43.216;27.904;2023-05-10T12:33:17;22.45;;;4.70;;
67798;SDS011;54596;43.216;27.904;2023-05-10T12:38:24;12.63;;;3.60;;
67798;SDS011;54596;43.216;27.904;2023-05-10T12:40:50;12.82;;;3.70;;
67798;SDS011;54596;43.216;27.904;2023-05-10T12:43:15;9.82;;;3.67;;
67798;SDS011;54596;43.216;27.904;2023-05-10T12:45:41;11.23;;;3.97;;
67798;SDS011;54596;43.216;27.904;2023-05-10T12:48:06;11.43;;;3.50;;
67798;SDS011;54596;43.216;27.904;2023-05-10T12:50:31;8.50;;;3.50;;
67798;SDS011;54596;43.216;27.904;2023-05-10T12:52:57;11.20;;;3.70;;
67798;SDS011;54596;43.216;27.904;2023-05-10T12:55:22;8.20;;;3.63;;
67798;SDS011;54596;43.216;27.904;2023-05-10T12:57:48;7.70;;;3.65;;
67798;SDS011;54596;43.216;27.904;2023-05-10T13:00:13;10.20;;;3.90;;
67798;SDS011;54596;43.216;27.904;2023-05-10T13:02:39;8.57;;;3.28;;
67798;SDS011;54596;43.216;27.904;2023-05-10T13:05:05;8.57;;;3.40;;
67798;SDS011;54596;43.216;27.904;2023-05-10T13:07:31;8.90;;;3.70;;
67798;SDS011;54596;43.216;27.904;2023-05-10T13:09:56;11.07;;;3.42;;
67798;SDS011;54596;43.216;27.904;2023-05-10T13:12:22;11.52;;;3.63;;
67798;SDS011;54596;43.216;27.904;2023-05-10T13:14:47;10.73;;;3.65;;
67798;SDS011;54596;43.216;27.904;2023-05-10T13:17:13;9.52;;;3.58;;
67798;SDS011;54596;43.216;27.904;2023-05-10T13:19:38;11.30;;;3.80;;
67798;SDS011;54596;43.216;27.904;2023-05-10T13:22:04;9.63;;;3.47;;
67798;SDS011;54596;43.216;27.904;2023-05-10T13:24:30;14.98;;;3.58;;
67798;SDS011;54596;43.216;27.904;2023-05-10T13:26:55;12.40;;;3.65;;
67798;SDS011;54596;43.216;27.904;2023-05-10T13:29:21;10.25;;;3.40;;
67798;SDS011;54596;43.216;27.904;2023-05-10T13:31:47;10.00;;;3.70;;
67798;SDS011;54596;43.216;27.904;2023-05-10T13:34:13;11.88;;;3.35;;
67798;SDS011;54596;43.216;27.904;2023-05-10T13:36:38;10.65;;;3.60;;
67798;SDS011;54596;43.216;27.904;2023-05-10T13:39:04;10.88;;;3.50;;
67798;SDS011;54596;43.216;27.904;2023-05-10T13:41:30;9.20;;;3.45;;
67798;SDS011;54596;43.216;27.904;2023-05-10T13:43:56;10.98;;;3.17;;
67798;SDS011;54596;43.216;27.904;2023-05-10T13:46:21;11.20;;;3.90;;
67798;SDS011;54596;43.216;27.904;2023-05-10T13:48:47;10.27;;;3.30;;
67798;SDS011;54596;43.216;27.904;2023-05-10T13:51:12;9.88;;;3.10;;
67798;SDS011;54596;43.216;27.904;2023-05-10T13:53:38;7.78;;;3.55;;
67798;SDS011;54596;43.216;27.904;2023-05-10T13:59:03;10.57;;;3.40;;
67798;SDS011;54596;43.216;27.904;2023-05-10T14:01:28;10.88;;;3.28;;
67798;SDS011;54596;43.216;27.904;2023-05-10T14:03:54;10.88;;;3.33;;
67798;SDS011;54596;43.216;27.904;2023-05-10T14:06:20;10.98;;;3.45;;
67798;SDS011;54596;43.216;27.904;2023-05-10T14:08:45;10.52;;;3.58;;
67798;SDS011;54596;43.216;27.904;2023-05-10T14:11:11;8.93;;;3.10;;
67798;SDS011;54596;43.216;27.904;2023-05-10T14:13:36;9.23;;;3.10;;
67798;SDS011;54596;43.216;27.904;2023-05-10T14:16:02;9.32;;;3.72;;
67798;SDS011;54596;43.216;27.904;2023-05-10T14:18:28;9.18;;;3.30;;
67798;SDS011;54596;43.216;27.904;2023-05-10T14:20:57;8.70;;;3.20;;
67798;SDS011;54596;43.216;27.904;2023-05-10T14:23:22;10.30;;;3.13;;
67798;SDS011;54596;43.216;27.904;2023-05-10T14:25:53;9.75;;;3.30;;
67798;SDS011;54596;43.216;27.904;2023-05-10T14:28:19;9.68;;;3.40;;
67798;SDS011;54596;43.216;27.904;2023-05-10T14:30:46;9.98;;;3.55;;
67798;SDS011;54596;43.216;27.904;2023-05-10T14:33:12;14.60;;;3.22;;
67798;SDS011;54596;43.216;27.904;2023-05-10T14:35:38;9.10;;;3.42;;
67798;SDS011;54596;43.216;27.904;2023-05-10T14:38:03;13.52;;;3.60;;
67798;SDS011;54596;43.216;27.904;2023-05-10T14:40:29;10.23;;;3.83;;
67798;SDS011;54596;43.216;27.904;2023-05-10T14:42:55;12.15;;;4.00;;
67798;SDS011;54596;43.216;27.904;2023-05-10T14:45:21;9.23;;;3.67;;
67798;SDS011;54596;43.216;27.904;2023-05-10T14:47:47;10.07;;;3.53;;
67798;SDS011;54596;43.216;27.904;2023-05-10T14:50:13;10.20;;;3.60;;
67798;SDS011;54596;43.216;27.904;2023-05-10T14:56:00;12.27;;;4.13;;
67798;SDS011;54596;43.216;27.904;2023-05-10T15:01:12;10.15;;;3.80;;
67798;SDS011;54596;43.216;27.904;2023-05-10T15:03:38;9.68;;;4.07;;
67798;SDS011;54596;43.216;27.904;2023-05-10T15:06:03;10.77;;;3.70;;
67798;SDS011;54596;43.216;27.904;2023-05-10T15:08:29;10.77;;;4.82;;